Time;durP1;ratioP1;P1;durP2;ratioP2;P2;SDS_P1;SDS_P2;PMS_P1;PMS_P2;Temp;Humidity;BMP_temperature;BMP_pressure;BME280_temperature;BME280_humidity;BME280_pressure;Samples;Min_cycle;Max_cycle;Signal;HPM_P1;HPM_P2
2021/10/02 00:46:13;;;;;;;23.40;14.30;;;;;;;9.35;100.00;100986.76;714014;1202;115398;-79
2021/10/02 01:01:24;;;;;;;26.47;15.03;;;;;;;9.24;100.00;100979.68;714207;1176;114447;-79
2021/10/02 01:16:32;;;;;;;20.43;12.37;;;;;;;9.11;100.00;100956.16;714065;1200;114038;-77
2021/10/02 01:31:41;;;;;;;22.53;13.83;;;;;;;8.98;100.00;100942.27;714114;1200;114258;-78
2021/10/02 02:02:08;;;;;;;21.57;13.57;;;;;;;8.82;100.00;100909.33;714050;1177;114813;-78
2021/10/02 02:17:11;;;;;;;25.55;14.95;;;;;;;8.82;100.00;100896.25;714330;1202;114091;-78
2021/10/02 02:32:14;;;;;;;28.50;17.10;;;;;;;8.74;100.00;100889.91;714074;1175;114738;-78
2021/10/02 02:47:23;;;;;;;30.37;15.73;;;;;;;8.73;100.00;100893.46;714200;1204;114191;-79
2021/10/02 03:02:26;;;;;;;27.90;12.88;;;;;;;8.67;100.00;100881.66;714241;1177;114723;-78
2021/10/02 03:17:29;;;;;;;24.10;14.80;;;;;;;8.66;100.00;100864.29;714038;1202;115424;-79
2021/10/02 03:32:32;;;;;;;24.38;14.70;;;;;;;8.69;100.00;100850.98;714099;1206;114482;-78
2021/10/02 03:47:34;;;;;;;27.43;14.75;;;;;;;8.89;100.00;100819.94;713946;1176;114023;-78
2021/10/02 04:02:37;;;;;;;29.75;17.30;;;;;;;9.05;100.00;100817.04;714080;1206;114295;-79
2021/10/02 04:17:39;;;;;;;35.13;17.90;;;;;;;9.18;100.00;100824.84;714048;1200;114931;-78
2021/10/02 04:32:41;;;;;;;40.60;17.73;;;;;;;9.30;100.00;100819.53;714238;1201;113862;-78
2021/10/02 04:47:47;;;;;;;35.20;18.30;;;;;;;9.35;100.00;100798.23;713946;1202;114719;-77
2021/10/02 05:02:50;;;;;;;35.73;18.15;;;;;;;9.47;100.00;100783.38;717154;1200;113557;-79
2021/10/02 05:17:52;;;;;;;38.80;19.88;;;;;;;9.57;100.00;100780.92;718385;1205;114171;-79
2021/10/02 05:32:55;;;;;;;31.63;17.60;;;;;;;9.59;100.00;100777.20;715101;1202;115007;-79
2021/10/02 05:47:57;;;;;;;34.13;18.80;;;;;;;9.71;100.00;100783.29;714379;1177;115731;-83
2021/10/02 06:03:01;;;;;;;62.93;24.30;;;;;;;9.92;100.00;100778.18;714497;1200;114053;-76
2021/10/02 06:18:03;;;;;;;31.40;17.63;;;;;;;10.05;100.00;100756.28;714444;1176;114375;-80
2021/10/02 06:33:05;;;;;;;45.53;26.15;;;;;;;10.25;100.00;100754.70;714311;1203;115014;-79
2021/10/02 06:48:08;;;;;;;33.75;21.05;;;;;;;10.55;100.00;100740.95;714513;1200;115835;-79
2021/10/02 07:03:10;;;;;;;35.77;20.00;;;;;;;10.67;100.00;100780.28;714796;1177;114359;-82
2021/10/02 07:18:13;;;;;;;34.40;17.20;;;;;;;10.69;100.00;100780.98;714203;1202;115520;-80
2021/10/02 07:33:15;;;;;;;30.83;15.68;;;;;;;10.74;100.00;100776.19;714527;1203;115339;-79
2021/10/02 07:48:24;;;;;;;33.98;17.75;;;;;;;10.93;100.00;100778.17;714580;1202;114974;-85
2021/10/02 08:03:28;;;;;;;49.25;33.05;;;;;;;11.17;100.00;100759.55;717029;1200;115129;-84
2021/10/02 08:18:38;;;;;;;83.30;46.73;;;;;;;11.57;100.00;100750.94;717144;1187;115149;-84
2021/10/02 08:33:42;;;;;;;35.83;18.23;;;;;;;11.80;100.00;100743.72;716678;1202;114456;-87
2021/10/02 08:49:14;;;;;;;34.60;18.63;;;;;;;12.23;100.00;100756.77;717126;1203;114354;-88
2021/10/02 09:04:17;;;;;;;32.33;19.15;;;;;;;12.05;100.00;100756.56;714897;1203;115870;-75
2021/10/02 09:19:19;;;;;;;36.43;19.80;;;;;;;12.15;100.00;100747.77;714255;1203;115248;-73
2021/10/02 09:34:25;;;;;;;37.68;20.65;;;;;;;12.37;100.00;100732.70;714852;1200;114363;-76
2021/10/02 09:49:41;;;;;;;42.75;21.38;;;;;;;12.55;100.00;100721.50;714286;1203;114434;-78
2021/10/02 10:04:52;;;;;;;43.33;23.67;;;;;;;12.58;100.00;100713.36;714359;1200;115834;-78
2021/10/02 10:20:09;;;;;;;46.78;23.55;;;;;;;12.68;100.00;100693.11;713934;1201;115168;-76
2021/10/02 10:35:11;;;;;;;45.77;24.70;;;;;;;13.08;100.00;100675.48;713252;1202;114871;-77
2021/10/02 10:50:14;;;;;;;45.63;26.83;;;;;;;13.15;100.00;100674.75;713983;1202;115538;-77
2021/10/02 11:05:35;;;;;;;43.38;25.50;;;;;;;13.22;100.00;100674.19;714004;1203;114483;-77
2021/10/02 11:20:39;;;;;;;46.80;26.60;;;;;;;13.32;100.00;100640.75;714179;1202;115560;-72
2021/10/02 11:35:42;;;;;;;42.23;24.37;;;;;;;13.61;100.00;100645.91;714053;1205;114923;-70
2021/10/02 11:50:47;;;;;;;44.35;25.95;;;;;;;13.76;100.00;100640.97;714462;1185;114273;-73
2021/10/02 12:05:50;;;;;;;39.63;24.33;;;;;;;14.34;100.00;100617.81;714326;1179;114204;-78
2021/10/02 12:20:52;;;;;;;38.90;22.53;;;;;;;16.18;100.00;100600.91;714430;1202;114400;-77
2021/10/02 12:35:54;;;;;;;35.43;22.30;;;;;;;16.73;100.00;100594.92;716163;1203;115101;-77
2021/10/02 12:50:56;;;;;;;37.60;30.70;;;;;;;17.31;100.00;100578.89;714947;1202;115661;-77
2021/10/02 13:06:00;;;;;;;41.53;29.33;;;;;;;17.94;100.00;100582.39;714236;1202;113972;-73
2021/10/02 13:21:07;;;;;;;60.65;33.40;;;;;;;19.47;97.54;100573.45;714381;1202;116140;-75
2021/10/02 13:36:19;;;;;;;191.53;107.05;;;;;;;20.87;93.19;100587.24;715187;1200;114122;-78
2021/10/02 13:51:22;;;;;;;46.67;29.53;;;;;;;18.23;91.60;100585.34;715105;1197;114541;-81
2021/10/02 14:06:24;;;;;;;34.45;21.55;;;;;;;18.76;95.23;100590.67;714323;1206;115742;-82
2021/10/02 14:21:26;;;;;;;40.30;26.20;;;;;;;21.02;90.63;100585.26;713755;1201;115416;-79
2021/10/02 14:36:29;;;;;;;46.58;33.58;;;;;;;23.39;80.99;100578.08;714255;1201;114625;-81
2021/10/02 14:51:36;;;;;;;28.70;20.48;;;;;;;19.50;81.61;100575.73;713982;1200;114228;-81
2021/10/02 15:06:49;;;;;;;22.55;17.95;;;;;;;21.38;81.50;100541.52;714260;1205;114102;-80
2021/10/02 15:22:01;;;;;;;29.50;22.00;;;;;;;18.27;86.34;100539.66;714054;1177;114989;-80
2021/10/02 15:37:03;;;;;;;29.05;18.70;;;;;;;17.34;92.01;100551.20;714325;1200;115713;-81
2021/10/02 15:52:09;;;;;;;34.87;22.93;;;;;;;17.11;94.29;100555.44;713852;1202;114173;-81
2021/10/02 16:07:12;;;;;;;27.13;17.63;;;;;;;16.21;98.32;100555.60;713992;1202;114923;-76
2021/10/02 16:22:14;;;;;;;56.95;33.23;;;;;;;15.89;100.00;100557.21;713320;1179;114134;-76
2021/10/02 16:37:18;;;;;;;73.60;36.73;;;;;;;15.44;100.00;100549.50;714108;1200;116165;-80
2021/10/02 16:52:26;;;;;;;49.80;28.90;;;;;;;15.13;100.00;100568.52;714264;1202;114337;-85
2021/10/02 17:07:28;;;;;;;39.53;23.15;;;;;;;14.84;100.00;100571.52;714708;1203;114636;-77
2021/10/02 17:22:30;;;;;;;84.48;39.68;;;;;;;14.56;100.00;100582.20;714672;1201;114538;-78
2021/10/02 17:37:32;;;;;;;56.33;27.53;;;;;;;14.36;100.00;100568.36;714559;1193;114686;-77
2021/10/02 17:52:35;;;;;;;47.20;24.00;;;;;;;14.32;100.00;100567.02;714312;1177;114365;-76
2021/10/02 18:07:37;;;;;;;50.28;23.50;;;;;;;14.23;100.00;100552.10;714188;1202;115712;-76
2021/10/02 18:22:40;;;;;;;43.37;21.67;;;;;;;14.06;100.00;100551.13;714408;1200;114317;-77
2021/10/02 18:37:47;;;;;;;42.83;20.18;;;;;;;13.82;100.00;100536.73;714717;1180;114758;-77
2021/10/02 18:52:50;;;;;;;38.00;21.67;;;;;;;13.71;100.00;100532.52;714082;1202;114524;-76
2021/10/02 19:07:52;;;;;;;41.90;22.45;;;;;;;13.65;100.00;100536.56;714856;1177;114356;-76
2021/10/02 19:22:54;;;;;;;38.93;22.08;;;;;;;13.55;100.00;100542.88;716867;1177;114652;-77
2021/10/02 19:37:57;;;;;;;35.20;20.60;;;;;;;13.35;100.00;100548.23;717573;1200;114379;-78
2021/10/02 19:53:02;;;;;;;36.97;21.60;;;;;;;13.33;100.00;100537.02;715200;1200;115228;-77
2021/10/02 20:08:05;;;;;;;37.43;21.13;;;;;;;13.12;100.00;100501.20;715696;1200;115756;-77
2021/10/02 20:23:08;;;;;;;40.90;22.08;;;;;;;13.04;100.00;100487.95;715185;1204;115259;-78
2021/10/02 20:38:11;;;;;;;40.80;22.37;;;;;;;13.07;100.00;100486.83;714681;1201;115076;-77
2021/10/02 20:53:14;;;;;;;33.70;21.70;;;;;;;13.01;100.00;100497.94;714911;1202;114971;-78
2021/10/02 21:08:17;;;;;;;34.93;21.55;;;;;;;12.91;100.00;100504.08;714374;1202;114761;-77
2021/10/02 21:23:20;;;;;;;35.63;21.60;;;;;;;12.79;100.00;100516.59;714705;1203;114715;-79
2021/10/02 21:38:23;;;;;;;36.60;22.18;;;;;;;12.65;100.00;100532.84;714952;1200;116302;-78
2021/10/02 21:53:26;;;;;;;34.80;20.50;;;;;;;12.42;100.00;100504.23;715006;1203;114240;-79
2021/10/02 22:08:31;;;;;;;58.13;31.20;;;;;;;12.03;100.00;100514.80;714747;1176;114759;-78
2021/10/02 22:23:37;;;;;;;44.98;23.70;;;;;;;12.00;100.00;100512.45;714455;1204;115814;-78
2021/10/02 22:38:40;;;;;;;70.70;32.80;;;;;;;11.96;100.00;100514.52;714152;1177;114395;-78
2021/10/02 22:53:44;;;;;;;79.90;35.85;;;;;;;11.89;100.00;100513.40;714112;1205;114773;-77
2021/10/02 23:08:46;;;;;;;62.60;30.60;;;;;;;11.83;100.00;100514.77;714200;1203;115931;-77
2021/10/02 23:23:50;;;;;;;43.50;23.48;;;;;;;11.82;100.00;100531.53;714341;1203;114857;-79
2021/10/02 23:38:52;;;;;;;62.88;27.75;;;;;;;11.72;100.00;100540.34;714253;1202;114388;-77
2021/10/02 23:54:09;;;;;;;36.45;20.70;;;;;;;11.73;100.00;100532.34;714233;1203;116246;-78
